createdAt,value
2023-02-14T00:00:24.462Z,97338.69
2023-02-14T00:02:51.291Z,97333.47
2023-02-14T00:05:17.895Z,97331.78
2023-02-14T00:07:44.381Z,97326.16
2023-02-14T00:10:11.012Z,97333.28
2023-02-14T00:12:37.476Z,97329.31
2023-02-14T00:15:04.124Z,97329.31
2023-02-14T00:17:30.579Z,97326.50
2023-02-14T00:19:57.051Z,97320.34
2023-02-14T00:22:23.545Z,97323.56
2023-02-14T00:24:50.024Z,97327.19
2023-02-14T00:27:16.606Z,97327.69
2023-02-14T00:29:43.085Z,97332.56
2023-02-14T00:32:09.723Z,97330.13
2023-02-14T00:34:36.485Z,97321.06
2023-02-14T00:37:04.203Z,97325.59
2023-02-14T00:39:30.797Z,97316.34
2023-02-14T00:41:57.371Z,97327.94
2023-02-14T00:44:23.857Z,97317.84
2023-02-14T00:46:50.382Z,97313.22
2023-02-14T00:49:17.407Z,97308.16
2023-02-14T00:51:43.916Z,97304.69
2023-02-14T00:54:10.384Z,97306.28
2023-02-14T00:56:36.998Z,97306.84
2023-02-14T00:59:03.460Z,97302.78
2023-02-14T01:01:29.948Z,97309.06
2023-02-14T01:03:56.684Z,97312.13
2023-02-14T01:06:23.144Z,97315.44
2023-02-14T01:08:49.601Z,97310.38
2023-02-14T01:11:18.776Z,97314.88
2023-02-14T01:13:46.210Z,97314.50
2023-02-14T01:16:16.419Z,97319.84
2023-02-14T01:18:43.635Z,97313.31
2023-02-14T01:21:16.135Z,97313.59
2023-02-14T01:23:44.451Z,97321.25
2023-02-14T01:26:15.086Z,97316.50
2023-02-14T01:28:43.090Z,97318.81
2023-02-14T01:31:13.632Z,97307.91
2023-02-14T01:33:41.954Z,97317.72
2023-02-14T01:36:16.142Z,97317.75
2023-02-14T01:38:42.674Z,97309.84
2023-02-14T01:41:09.189Z,97306.34
2023-02-14T01:43:58.690Z,97301.63
2023-02-14T01:46:28.616Z,97298.16
2023-02-14T01:49:03.250Z,97301.06
2023-02-14T01:51:31.777Z,97299.59
2023-02-14T01:54:00.253Z,97299.97
2023-02-14T01:56:43.497Z,97296.03
2023-02-14T01:59:16.009Z,97299.97
2023-02-14T02:01:43.456Z,97296.41
2023-02-14T02:04:17.669Z,97307.44
2023-02-14T02:06:54.297Z,97300.16
2023-02-14T02:09:48.946Z,97299.25
2023-02-14T02:12:15.549Z,97295.41
2023-02-14T02:14:43.078Z,97296.81
2023-02-14T02:17:22.406Z,97293.44
2023-02-14T02:19:58.036Z,97292.81
2023-02-14T02:22:55.538Z,97281.72
2023-02-14T02:25:46.711Z,97278.53
2023-02-14T02:28:18.836Z,97280.06
2023-02-14T02:31:36.865Z,97278.38
2023-02-14T02:34:39.032Z,97281.63
2023-02-14T02:37:11.508Z,97283.59
2023-02-14T02:39:59.163Z,97280.78
2023-02-14T02:43:09.978Z,97282.44
2023-02-14T02:46:03.860Z,97272.59
2023-02-14T02:49:13.037Z,97276.94
2023-02-14T02:51:53.162Z,97271.25
2023-02-14T02:54:34.795Z,97280.41
2023-02-14T02:57:07.226Z,97276.13
2023-02-14T02:59:41.561Z,97275.94
2023-02-14T03:02:25.579Z,97279.56
2023-02-14T03:04:59.287Z,97264.19
2023-02-14T03:07:28.454Z,97266.16
2023-02-14T03:09:58.048Z,97263.81
2023-02-14T03:12:33.284Z,97270.81
2023-02-14T03:15:31.141Z,97266.72
2023-02-14T03:18:16.241Z,97264.66
2023-02-14T03:20:57.929Z,97253.38
2023-02-14T03:23:38.807Z,97256.06
2023-02-14T03:26:17.105Z,97261.97
2023-02-14T03:29:20.885Z,97260.81
2023-02-14T03:32:03.662Z,97258.78
2023-02-14T03:34:36.654Z,97254.44
2023-02-14T03:37:13.941Z,97254.69
2023-02-14T03:39:56.581Z,97264.41
2023-02-14T03:42:33.958Z,97262.63
2023-02-14T03:45:05.615Z,97263.66
2023-02-14T03:47:35.856Z,97253.84
2023-02-14T03:50:09.216Z,97253.00
2023-02-14T03:52:38.672Z,97264.19
2023-02-14T03:55:08.596Z,97259.88
2023-02-14T03:57:39.650Z,97260.09
2023-02-14T04:00:07.119Z,97269.69
2023-02-14T04:02:44.076Z,97262.31
2023-02-14T04:05:22.747Z,97269.41
2023-02-14T04:07:52.682Z,97272.59
2023-02-14T04:10:21.062Z,97272.59
2023-02-14T04:13:05.536Z,97276.47
2023-02-14T04:15:42.404Z,97272.72
2023-02-14T04:18:09.780Z,97259.34
2023-02-14T04:20:36.247Z,97265.88
2023-02-14T04:23:03.738Z,97262.78
2023-02-14T04:25:30.551Z,97256.19
2023-02-14T04:27:57.073Z,97253.75
2023-02-14T04:30:23.655Z,97255.69
2023-02-14T04:32:50.186Z,97257.50
2023-02-14T04:35:16.778Z,97243.88
2023-02-14T04:37:43.253Z,97246.47
2023-02-14T04:40:10.357Z,97250.03
2023-02-14T04:42:36.924Z,97251.22
2023-02-14T04:45:04.464Z,97251.72
2023-02-14T04:47:31.131Z,97240.41
2023-02-14T04:49:57.753Z,97236.41
2023-02-14T04:52:24.368Z,97242.19
2023-02-14T04:54:50.835Z,97243.03
2023-02-14T04:57:17.288Z,97245.72
2023-02-14T04:59:43.740Z,97244.63
2023-02-14T05:02:10.398Z,97246.09
2023-02-14T05:04:37.033Z,97243.03
2023-02-14T05:07:03.810Z,97249.91
2023-02-14T05:09:30.375Z,97255.81
2023-02-14T05:11:56.841Z,97247.75
2023-02-14T05:14:23.474Z,97249.56
2023-02-14T05:16:50.052Z,97251.22
2023-02-14T05:19:16.523Z,97252.16
2023-02-14T05:21:43.011Z,97258.75
2023-02-14T05:24:13.249Z,97260.06
2023-02-14T05:26:39.754Z,97258.75
2023-02-14T05:29:06.420Z,97258.88
2023-02-14T05:31:32.998Z,97262.91
2023-02-14T05:33:59.836Z,97258.03
2023-02-14T05:36:26.447Z,97262.41
2023-02-14T05:38:52.930Z,97253.19
2023-02-14T05:41:19.415Z,97261.22
2023-02-14T05:43:45.887Z,97255.06
2023-02-14T05:46:12.437Z,97258.59
2023-02-14T05:48:38.958Z,97267.25
2023-02-14T05:51:08.639Z,97260.09
2023-02-14T05:53:35.353Z,97258.03
2023-02-14T05:56:02.257Z,97259.41
2023-02-14T05:58:28.795Z,97254.00
2023-02-14T06:00:57.380Z,97253.38
2023-02-14T06:03:24.299Z,97256.28
2023-02-14T06:05:50.873Z,97257.84
2023-02-14T06:08:17.349Z,97254.38
2023-02-14T06:10:43.981Z,97254.94
2023-02-14T06:13:10.482Z,97245.38
2023-02-14T06:15:38.053Z,97250.81
2023-02-14T06:18:05.713Z,97253.19
2023-02-14T06:20:32.548Z,97263.63
2023-02-14T06:22:59.245Z,97258.41
2023-02-14T06:25:26.302Z,97254.38
2023-02-14T06:27:56.635Z,97267.25
2023-02-14T06:30:23.202Z,97252.06
2023-02-14T06:32:52.711Z,97253.94
2023-02-14T06:35:19.556Z,97262.59
2023-02-14T06:37:46.403Z,97260.91
2023-02-14T06:40:14.061Z,97250.78
2023-02-14T06:42:40.655Z,97252.81
2023-02-14T06:45:07.785Z,97264.28
2023-02-14T06:47:35.231Z,97263.81
2023-02-14T06:50:02.607Z,97258.50
2023-02-14T06:52:29.071Z,97258.19
2023-02-14T06:54:55.576Z,97253.56
2023-02-14T06:57:22.090Z,97251.88
2023-02-14T06:59:48.584Z,97258.03
2023-02-14T07:02:15.163Z,97258.03
2023-02-14T07:04:41.747Z,97251.88
2023-02-14T07:07:08.247Z,97255.59
2023-02-14T07:09:34.736Z,97261.59
2023-02-14T07:12:01.252Z,97259.72
2023-02-14T07:14:27.710Z,97255.06
2023-02-14T07:16:54.168Z,97260.28
2023-02-14T07:19:20.688Z,97269.59
2023-02-14T07:21:47.233Z,97267.53
2023-02-14T07:24:13.769Z,97262.47
2023-02-14T07:26:40.259Z,97259.13
2023-02-14T07:29:06.756Z,97262.31
2023-02-14T07:31:33.353Z,97271.19
2023-02-14T07:33:59.890Z,97258.78
2023-02-14T07:36:26.641Z,97256.47
2023-02-14T07:38:53.148Z,97257.41
2023-02-14T07:41:19.648Z,97259.81
2023-02-14T07:43:46.172Z,97264.19
2023-02-14T07:46:12.855Z,97253.72
2023-02-14T07:48:39.348Z,97259.34
2023-02-14T07:51:05.848Z,97263.97
2023-02-14T07:53:32.368Z,97263.38
2023-02-14T07:55:58.929Z,97261.03
2023-02-14T07:58:25.440Z,97255.31
2023-02-14T08:00:52.012Z,97264.16
2023-02-14T08:03:18.619Z,97262.81
2023-02-14T08:05:48.098Z,97261.19
2023-02-14T08:08:14.612Z,97258.19
2023-02-14T08:10:41.152Z,97260.09
2023-02-14T08:13:07.756Z,97266.41
2023-02-14T08:15:35.364Z,97264.53
2023-02-14T08:18:01.853Z,97251.56
2023-02-14T08:20:28.318Z,97260.78
2023-02-14T08:22:55.803Z,97260.16
2023-02-14T08:25:22.341Z,97257.25
2023-02-14T08:27:48.840Z,97254.31
2023-02-14T08:30:15.691Z,97257.44
2023-02-14T08:32:52.365Z,97254.94
2023-02-14T08:35:18.906Z,97258.72
2023-02-14T08:37:45.379Z,97249.31
2023-02-14T08:40:12.345Z,97249.72
2023-02-14T08:42:38.869Z,97244.78
2023-02-14T08:45:06.160Z,97246.84
2023-02-14T08:47:33.300Z,97250.41
2023-02-14T08:49:59.829Z,97254.09
2023-02-14T08:52:26.338Z,97250.22
2023-02-14T08:54:52.824Z,97253.84
2023-02-14T08:57:19.346Z,97250.28
2023-02-14T08:59:45.887Z,97246.16
2023-02-14T09:02:13.377Z,97242.03
2023-02-14T09:04:40.100Z,97251.84
2023-02-14T09:07:06.622Z,97247.84
2023-02-14T09:09:33.190Z,97243.09
2023-02-14T09:12:04.450Z,97245.28
2023-02-14T09:14:38.121Z,97250.50
2023-02-14T09:17:05.616Z,97249.06
2023-02-14T09:19:33.337Z,97249.06
2023-02-14T09:22:00.357Z,97253.88
2023-02-14T09:24:26.847Z,97253.41
2023-02-14T09:26:54.018Z,97249.28
2023-02-14T09:29:20.503Z,97251.03
2023-02-14T09:31:47.066Z,97246.47
2023-02-14T09:34:13.708Z,97251.06
2023-02-14T09:36:40.216Z,97248.03
2023-02-14T09:39:06.832Z,97241.88
2023-02-14T09:42:14.806Z,97241.75
2023-02-14T09:45:04.483Z,97254.06
2023-02-14T09:47:41.972Z,97243.25
2023-02-14T09:50:43.999Z,97250.06
2023-02-14T09:53:36.496Z,97252.94
2023-02-14T09:56:25.551Z,97249.06
2023-02-14T09:59:11.793Z,97248.09
2023-02-14T10:01:51.053Z,97249.06
2023-02-14T10:04:40.382Z,97245.81
2023-02-14T10:07:12.991Z,97240.91
2023-02-14T10:10:00.347Z,97243.38
2023-02-14T10:12:39.012Z,97231.78
2023-02-14T10:15:21.755Z,97231.22
2023-02-14T10:18:10.256Z,97237.91
2023-02-14T10:20:55.271Z,97234.19
2023-02-14T10:23:33.300Z,97232.19
2023-02-14T10:26:25.863Z,97239.56
2023-02-14T10:28:52.416Z,97240.75
2023-02-14T10:31:19.001Z,97236.94
2023-02-14T10:33:51.260Z,97227.81
2023-02-14T10:37:07.473Z,97229.13
2023-02-14T10:40:01.929Z,97222.16
2023-02-14T10:42:44.095Z,97225.50
2023-02-14T10:45:33.538Z,97222.38
2023-02-14T10:48:35.003Z,97217.00
2023-02-14T10:51:25.101Z,97225.22
2023-02-14T10:54:16.531Z,97214.03
2023-02-14T10:56:52.062Z,97216.88
2023-02-14T10:59:35.410Z,97207.44
2023-02-14T11:02:02.218Z,97204.94
2023-02-14T11:04:31.760Z,97200.41
2023-02-14T11:06:58.321Z,97194.94
2023-02-14T11:09:24.911Z,97185.38
2023-02-14T11:11:58.931Z,97184.28
2023-02-14T11:14:28.019Z,97172.00
2023-02-14T11:16:55.462Z,97165.03
2023-02-14T11:19:29.338Z,97168.53
2023-02-14T11:21:59.334Z,97163.88
2023-02-14T11:24:30.235Z,97157.06
2023-02-14T11:27:02.387Z,97153.84
2023-02-14T11:29:35.108Z,97155.16
2023-02-14T11:32:12.724Z,97142.38
2023-02-14T11:34:54.043Z,97146.91
2023-02-14T11:37:23.265Z,97136.84
2023-02-14T11:39:52.122Z,97139.19
2023-02-14T11:42:37.022Z,97136.81
2023-02-14T11:45:05.702Z,97136.28
2023-02-14T11:47:36.465Z,97125.44
2023-02-14T11:50:07.311Z,97136.44
2023-02-14T11:52:45.633Z,97137.16
2023-02-14T11:55:27.030Z,97124.50
2023-02-14T11:57:55.333Z,97127.81
2023-02-14T12:00:22.906Z,97122.03
2023-02-14T12:02:54.214Z,97123.25
2023-02-14T12:05:30.997Z,97127.22
2023-02-14T12:08:02.435Z,97115.38
2023-02-14T12:10:34.581Z,97113.53
2023-02-14T12:13:09.734Z,97115.63
2023-02-14T12:15:40.133Z,97110.03
2023-02-14T12:18:47.023Z,97109.56
2023-02-14T12:21:39.546Z,97099.28
2023-02-14T12:24:23.660Z,97089.50
2023-02-14T12:27:00.333Z,97088.00
2023-02-14T12:29:54.200Z,97079.91
2023-02-14T12:32:25.353Z,97078.44
2023-02-14T12:35:17.176Z,97074.13
2023-02-14T12:38:08.446Z,97058.50
2023-02-14T12:40:47.028Z,97062.41
2023-02-14T12:43:27.255Z,97057.09
2023-02-14T12:46:12.980Z,97054.09
2023-02-14T12:49:13.344Z,97055.06
2023-02-14T12:51:58.762Z,97053.03
2023-02-14T12:55:05.039Z,97049.97
2023-02-14T12:58:13.326Z,97050.53
2023-02-14T13:01:10.353Z,97038.72
2023-02-14T13:03:36.860Z,97036.00
2023-02-14T13:06:08.747Z,97024.22
2023-02-14T13:08:47.625Z,97011.25
2023-02-14T13:11:23.700Z,97010.06
2023-02-14T13:14:15.240Z,97000.91
2023-02-14T13:17:03.365Z,96993.41
2023-02-14T13:19:51.551Z,96988.66
2023-02-14T13:22:23.699Z,96998.38
2023-02-14T13:25:35.170Z,96984.63
2023-02-14T13:28:06.947Z,96993.66
2023-02-14T13:30:35.904Z,96993.66
2023-02-14T13:33:08.205Z,96991.63
2023-02-14T13:35:35.729Z,96988.78
2023-02-14T13:38:08.261Z,96988.38
2023-02-14T13:40:36.326Z,96993.22
2023-02-14T13:43:03.646Z,96993.56
2023-02-14T13:45:30.581Z,96992.97
2023-02-14T13:48:18.258Z,96990.94
2023-02-14T13:51:04.308Z,96992.97
2023-02-14T13:53:39.060Z,96984.56
2023-02-14T13:56:32.405Z,96985.50
2023-02-14T13:59:03.553Z,96977.63
2023-02-14T14:01:32.932Z,96973.19
2023-02-14T14:04:03.658Z,96975.03
2023-02-14T14:06:55.090Z,96966.56
2023-02-14T14:09:41.746Z,96962.84
2023-02-14T14:12:26.471Z,96966.00
2023-02-14T14:15:05.158Z,96955.16
2023-02-14T14:17:37.350Z,96950.28
2023-02-14T14:20:26.741Z,96942.94
2023-02-14T14:22:59.772Z,96942.88
2023-02-14T14:25:37.396Z,96940.44
2023-02-14T14:28:11.231Z,96940.94
2023-02-14T14:30:44.430Z,96939.03
2023-02-14T14:33:33.363Z,96928.34
2023-02-14T14:36:06.703Z,96941.50
2023-02-14T14:38:47.103Z,96934.00
2023-02-14T14:41:13.848Z,96941.50
2023-02-14T14:43:41.381Z,96931.44
2023-02-14T14:46:12.490Z,96934.31
2023-02-14T14:48:40.794Z,96929.56
2023-02-14T14:51:17.802Z,96933.97
2023-02-14T14:53:52.463Z,96933.25
2023-02-14T14:56:58.863Z,96920.97
2023-02-14T14:59:25.309Z,96927.19
2023-02-14T15:01:51.914Z,96920.38
2023-02-14T15:04:26.565Z,96922.97
2023-02-14T15:06:56.558Z,96915.22
2023-02-14T15:09:31.080Z,96920.31
2023-02-14T15:12:01.786Z,96913.59
2023-02-14T15:14:33.827Z,96906.47
2023-02-14T15:17:03.961Z,96912.03
2023-02-14T15:19:44.516Z,96912.84
2023-02-14T15:22:41.861Z,96907.81
2023-02-14T15:25:16.977Z,96913.84
2023-02-14T15:27:43.929Z,96908.44
2023-02-14T15:30:19.892Z,96908.84
2023-02-14T15:32:49.070Z,96908.00
2023-02-14T15:35:18.591Z,96905.56
2023-02-14T15:37:47.130Z,96900.41
2023-02-14T15:40:27.125Z,96904.69
2023-02-14T15:42:54.713Z,96901.84
2023-02-14T15:45:23.265Z,96898.47
2023-02-14T15:47:53.826Z,96894.38
2023-02-14T15:50:26.902Z,96897.34
2023-02-14T15:53:20.075Z,96905.53
2023-02-14T15:55:48.619Z,96897.56
2023-02-14T15:58:23.836Z,96899.59
2023-02-14T16:00:53.244Z,96895.03
2023-02-14T16:03:23.828Z,96897.56
2023-02-14T16:05:51.257Z,96897.22
2023-02-14T16:08:23.407Z,96896.72
2023-02-14T16:11:02.275Z,96899.84
2023-02-14T16:13:34.967Z,96895.44
2023-02-14T16:16:15.701Z,96892.28
2023-02-14T16:18:47.992Z,96895.22
2023-02-14T16:21:18.309Z,96894.09
2023-02-14T16:23:50.250Z,96884.19
2023-02-14T16:26:16.804Z,96890.94
2023-02-14T16:28:43.549Z,96893.66
2023-02-14T16:31:16.757Z,96891.94
2023-02-14T16:33:43.372Z,96895.13
2023-02-14T16:36:31.160Z,96888.09
2023-02-14T16:39:01.956Z,96897.63
2023-02-14T16:41:29.981Z,96895.03
2023-02-14T16:43:56.866Z,96901.66
2023-02-14T16:46:28.432Z,96894.53
2023-02-14T16:48:55.505Z,96895.00
2023-02-14T16:51:26.904Z,96901.56
2023-02-14T16:53:57.206Z,96898.84
2023-02-14T16:56:33.479Z,96897.03
2023-02-14T16:59:00.284Z,96902.03
2023-02-14T17:01:26.821Z,96898.09
2023-02-14T17:03:53.336Z,96896.63
2023-02-14T17:06:24.479Z,96903.44
2023-02-14T17:08:53.031Z,96893.84
2023-02-14T17:11:24.952Z,96896.78
2023-02-14T17:13:54.501Z,96900.00
2023-02-14T17:16:23.422Z,96890.88
2023-02-14T17:18:52.201Z,96890.69
2023-02-14T17:21:23.716Z,96889.91
2023-02-14T17:23:50.648Z,96891.09
2023-02-14T17:26:17.134Z,96894.75
2023-02-14T17:28:44.003Z,96893.81
2023-02-14T17:31:10.555Z,96898.41
2023-02-14T17:33:37.118Z,96899.81
2023-02-14T17:36:11.793Z,96899.28
2023-02-14T17:38:38.973Z,96900.94
2023-02-14T17:41:23.982Z,96899.63
2023-02-14T17:43:52.991Z,96905.97
2023-02-14T17:46:19.634Z,96904.06
2023-02-14T17:48:47.741Z,96897.53
2023-02-14T17:51:16.691Z,96906.03
2023-02-14T17:53:43.366Z,96901.03
2023-02-14T17:56:13.934Z,96907.13
2023-02-14T17:58:40.789Z,96901.88
2023-02-14T18:01:10.318Z,96903.81
2023-02-14T18:03:38.617Z,96905.47
2023-02-14T18:06:06.581Z,96905.19
2023-02-14T18:08:36.098Z,96909.06
2023-02-14T18:11:06.591Z,96904.34
2023-02-14T18:13:34.211Z,96901.28
2023-02-14T18:16:10.036Z,96905.41
2023-02-14T18:18:37.040Z,96909.31
2023-02-14T18:21:05.420Z,96903.69
2023-02-14T18:23:34.537Z,96900.38
2023-02-14T18:26:05.242Z,96895.91
2023-02-14T18:28:33.057Z,96892.69
2023-02-14T18:31:08.436Z,96895.88
2023-02-14T18:33:35.618Z,96892.69
2023-02-14T18:36:08.496Z,96891.69
2023-02-14T18:38:35.534Z,96889.44
2023-02-14T18:41:06.659Z,96887.78
2023-02-14T18:43:33.224Z,96883.31
2023-02-14T18:46:05.292Z,96891.91
2023-02-14T18:48:32.199Z,96878.59
2023-02-14T18:51:12.804Z,96885.06
2023-02-14T18:53:40.683Z,96880.53
2023-02-14T18:56:10.373Z,96884.75
2023-02-14T18:58:36.895Z,96888.03
2023-02-14T19:01:18.743Z,96877.06
2023-02-14T19:03:45.372Z,96875.56
2023-02-14T19:06:13.105Z,96876.00
2023-02-14T19:08:40.801Z,96873.72
2023-02-14T19:11:15.561Z,96875.25
2023-02-14T19:13:47.604Z,96877.63
2023-02-14T19:16:18.053Z,96882.25
2023-02-14T19:18:45.148Z,96886.41
2023-02-14T19:21:19.231Z,96875.56
2023-02-14T19:23:46.254Z,96883.25
2023-02-14T19:26:16.667Z,96878.59
2023-02-14T19:28:45.258Z,96877.16
2023-02-14T19:31:13.584Z,96877.56
2023-02-14T19:33:44.919Z,96880.44
2023-02-14T19:36:13.953Z,96886.25
2023-02-14T19:38:47.873Z,96880.69
2023-02-14T19:41:26.508Z,96885.22
2023-02-14T19:43:56.320Z,96890.06
2023-02-14T19:46:23.073Z,96894.13
2023-02-14T19:48:49.975Z,96889.13
2023-02-14T19:51:20.481Z,96883.63
2023-02-14T19:53:47.482Z,96885.34
2023-02-14T19:56:19.338Z,96879.06
2023-02-14T19:58:45.984Z,96879.03
2023-02-14T20:01:42.231Z,96879.59
2023-02-14T20:04:11.929Z,96882.59
2023-02-14T20:06:38.428Z,96879.34
2023-02-14T20:09:06.347Z,96889.44
2023-02-14T20:11:41.335Z,96879.94
2023-02-14T20:14:08.897Z,96886.84
2023-02-14T20:16:37.094Z,96880.66
2023-02-14T20:19:09.766Z,96877.78
2023-02-14T20:21:36.246Z,96875.63
2023-02-14T20:24:04.194Z,96873.78
2023-02-14T20:26:33.468Z,96866.09
2023-02-14T20:29:02.757Z,96875.88
2023-02-14T20:31:31.227Z,96870.69
2023-02-14T20:33:57.793Z,96868.78
2023-02-14T20:36:25.385Z,96869.97
2023-02-14T20:39:00.501Z,96871.91
2023-02-14T20:41:27.901Z,96871.41
2023-02-14T20:43:55.500Z,96877.09
2023-02-14T20:46:22.876Z,96879.25
2023-02-14T20:48:49.460Z,96876.16
2023-02-14T20:51:18.489Z,96878.91
2023-02-14T20:53:45.908Z,96876.66
2023-02-14T20:56:14.414Z,96884.53
2023-02-14T20:58:41.491Z,96874.03
2023-02-14T21:01:19.691Z,96880.72
2023-02-14T21:03:48.794Z,96878.34
2023-02-14T21:06:15.481Z,96875.72
2023-02-14T21:08:42.770Z,96875.47
2023-02-14T21:11:11.784Z,96877.13
2023-02-14T21:13:38.620Z,96877.72
2023-02-14T21:16:07.645Z,96876.31
2023-02-14T21:18:35.765Z,96876.56
2023-02-14T21:21:07.615Z,96874.53
2023-02-14T21:23:34.743Z,96881.72
2023-02-14T21:26:01.268Z,96882.16
2023-02-14T21:28:31.293Z,96873.09
2023-02-14T21:31:05.701Z,96871.72
2023-02-14T21:33:32.607Z,96873.50
2023-02-14T21:36:16.048Z,96866.94
2023-02-14T21:38:43.438Z,96869.53
2023-02-14T21:41:19.131Z,96868.59
2023-02-14T21:43:48.573Z,96868.25
2023-02-14T21:46:18.009Z,96868.38
2023-02-14T21:48:45.078Z,96863.34
2023-02-14T21:51:11.741Z,96866.69
2023-02-14T21:53:38.445Z,96868.59
2023-02-14T21:56:06.406Z,96868.13
2023-02-14T21:58:32.877Z,96860.16
2023-02-14T22:00:59.634Z,96864.31
2023-02-14T22:03:26.255Z,96871.22
2023-02-14T22:06:01.764Z,96867.66
2023-02-14T22:08:28.627Z,96865.41
2023-02-14T22:10:55.318Z,96864.81
2023-02-14T22:13:22.395Z,96847.97
2023-02-14T22:15:48.950Z,96849.53
2023-02-14T22:18:16.351Z,96846.44
2023-02-14T22:20:43.265Z,96843.34
2023-02-14T22:23:09.858Z,96832.84
2023-02-14T22:25:36.355Z,96838.56
2023-02-14T22:28:02.852Z,96837.41
2023-02-14T22:30:29.353Z,96833.56
2023-02-14T22:32:55.918Z,96837.84
2023-02-14T22:35:22.382Z,96831.53
2023-02-14T22:37:48.834Z,96835.72
2023-02-14T22:40:15.344Z,96834.06
2023-02-14T22:42:41.813Z,96841.69
2023-02-14T22:45:08.705Z,96840.25
2023-02-14T22:47:35.263Z,96839.66
2023-02-14T22:50:01.748Z,96839.53
2023-02-14T22:52:28.525Z,96838.84
2023-02-14T22:54:54.988Z,96841.78
2023-02-14T22:57:21.473Z,96838.56
2023-02-14T22:59:47.977Z,96841.28
2023-02-14T23:02:14.443Z,96838.78
2023-02-14T23:04:40.940Z,96839.00
2023-02-14T23:07:10.493Z,96848.53
2023-02-14T23:09:36.950Z,96847.94
2023-02-14T23:12:03.651Z,96847.56
2023-02-14T23:14:30.122Z,96848.03
2023-02-14T23:16:56.933Z,96845.75
2023-02-14T23:19:26.346Z,96849.69
2023-02-14T23:21:52.798Z,96842.34
2023-02-14T23:24:19.289Z,96848.19
2023-02-14T23:26:46.057Z,96840.22
2023-02-14T23:29:12.737Z,96840.34
2023-02-14T23:31:39.437Z,96841.84
2023-02-14T23:34:05.967Z,96839.91
2023-02-14T23:36:32.417Z,96837.84
2023-02-14T23:38:58.868Z,96836.78
2023-02-14T23:41:25.342Z,96837.19
2023-02-14T23:43:55.009Z,96831.78
2023-02-14T23:46:21.540Z,96836.25
2023-02-14T23:48:48.054Z,96829.88
2023-02-14T23:51:14.536Z,96835.94
2023-02-14T23:53:41.007Z,96832.38
2023-02-14T23:56:07.521Z,96834.63
2023-02-14T23:58:34.003Z,96833.34
